Aeroporto :
LOGIN :

Iscrizione | Disclaimer

   EN    FR    IT 

 










Sommario :    VFR   VFR Marginale   IFR   IFR Intensivo   IFR Molto Intensivo
Visibilità : 
Base nubi : 
>= 8 km
>= 3000ft
5 / 8 km
1000 / 3000 ft
1500m / 5 km
500 / 1000 ft
800 / 1500m
200 / 500 ft
< 800m
< 200 ft
Simboli :   Temporali  Nebbia  Neve Forte  Precipitazioni Forti  Vento > 20 kt
SIGMETs :   Varie  Temporali  Ghiacco  Turbolenza  Onda orograficha  Ceneri Vulcaniche






- Altitudine del aeroporto : 74 ft
- Codice IATA : EIN


EHEH - Eindhoven

ULTIMO METAR :
  • 292025Z AUTO 21009KT 9999 FEW098 BKN110 OVC160 05/02 Q1012 BLU 23007KT 9999 FEW025 SCT030

METARs OBSOLETI :
  • 291955Z AUTO 22010KT 9999 BKN092 OVC098 05/02 Q1012 BLU 23007KT 9999 FEW025 SCT030
  • 291925Z AUTO 22009KT 9999 FEW087 BKN094 OVC100 05/02 Q1012 BLU 23007KT 9999 FEW025 SCT030
  • 291855Z AUTO 21007KT 9999 OVC140 04/01 Q1012 BLU 23007KT 9999 FEW025 SCT030
  • 291825Z AUTO 20006KT 9999 OVC150 04/01 Q1011 BLU 23007KT 9999 FEW025 SCT030
  • 291755Z AUTO 23007KT 9999 SCT180 OVC230 04/01 Q1011 BLU 23007KT 9999 FEW025 SCT030
  • 291725Z AUTO 23007KT 200V270 9999 OVC180 05/02 Q1011 BLU 23007KT 9999 SCT025 BKN030

TAF TAF EHEH
Valido dal 29 a 18 ore il 31 a 00 ore UTC


291721Z 2918/3024 23009KT 9999 FEW020 SCT030
BECMG 2919/2922 23014KT
BECMG 3010/3013 20010KT SCT015 BKN020
BECMG 3014/3017 4500 -RADZ SCT005 BKN007 OVC015
PROB40
TEMPO 3017/3024 2000 DZ SCT002 BKN005
BECMG 3019/3022 27015G28KT



MetMap, La meteo Aeronautica in un colpo d'occhio ! - Copyright ORBIFLY Dicembre 2007 - Disclaimer

ORBIFLY MET'MAP TEAM :

Programmazione e sviluppo : Alexandra Zaïnal
Concezione : Baudouin d'Aumeries
Aiuto per la programmazione : Marc-Olivier Méhu
Supporto tecnico e logistico : Manuel Goepfert
Aiuto per la traduzione : Arnaldo La Scala

Contatto : metmap@orbifly.com




FONTI E CREDITI :

   NOAA